createdAt,value
2022-12-03T00:00:39.693Z,68.10
2022-12-03T00:03:14.097Z,68.02
2022-12-03T00:05:49.047Z,67.69
2022-12-03T00:08:23.728Z,68.06
2022-12-03T00:10:57.953Z,67.99
2022-12-03T00:13:33.099Z,67.98
2022-12-03T00:16:08.474Z,68.15
2022-12-03T00:18:43.268Z,68.41
2022-12-03T00:21:17.848Z,68.38
2022-12-03T00:23:52.148Z,68.27
2022-12-03T00:26:26.487Z,68.13
2022-12-03T00:29:09.011Z,68.49
2022-12-03T00:31:42.238Z,68.57
2022-12-03T00:34:16.388Z,68.53
2022-12-03T00:36:50.894Z,68.62
2022-12-03T00:39:24.835Z,68.62
2022-12-03T00:42:10.368Z,68.95
2022-12-03T00:44:44.848Z,69.09
2022-12-03T00:47:18.375Z,68.90
2022-12-03T00:49:52.493Z,69.04
2022-12-03T00:52:26.011Z,68.66
2022-12-03T00:54:57.961Z,68.70
2022-12-03T00:57:32.324Z,68.86
2022-12-03T01:00:08.428Z,69.13
2022-12-03T01:02:42.020Z,69.01
2022-12-03T01:05:16.604Z,68.70
2022-12-03T01:07:50.526Z,68.66
2022-12-03T01:10:24.219Z,68.73
2022-12-03T01:12:58.782Z,68.75
2022-12-03T01:15:32.879Z,68.87
2022-12-03T01:18:07.433Z,68.83
2022-12-03T01:20:42.361Z,68.81
2022-12-03T01:23:16.848Z,68.68
2022-12-03T01:25:50.829Z,68.79
2022-12-03T01:28:24.944Z,68.74
2022-12-03T01:31:15.774Z,69.00
2022-12-03T01:33:50.171Z,69.14
2022-12-03T01:36:24.450Z,69.28
2022-12-03T01:38:59.107Z,69.46
2022-12-03T01:41:33.992Z,69.50
2022-12-03T01:44:14.829Z,69.19
2022-12-03T01:46:49.978Z,69.27
2022-12-03T01:49:27.832Z,69.54
2022-12-03T01:52:01.149Z,69.41
2022-12-03T01:54:43.200Z,69.72
2022-12-03T01:57:25.385Z,69.25
2022-12-03T02:00:02.941Z,69.51
2022-12-03T02:02:39.022Z,69.59
2022-12-03T02:05:21.097Z,69.16
2022-12-03T02:10:43.310Z,69.64
2022-12-03T02:13:17.777Z,69.20
2022-12-03T02:16:00.553Z,69.13
2022-12-03T02:18:34.549Z,69.56
2022-12-03T02:21:16.985Z,69.67
2022-12-03T02:24:00.573Z,69.38
2022-12-03T02:26:34.466Z,69.50
2022-12-03T02:29:09.222Z,69.52
2022-12-03T02:31:44.520Z,69.67
2022-12-03T02:34:38.187Z,69.41
2022-12-03T02:37:16.895Z,69.62
2022-12-03T02:39:54.401Z,69.48
2022-12-03T02:42:38.054Z,69.45
2022-12-03T02:45:17.389Z,69.54
2022-12-03T02:47:54.583Z,69.21
2022-12-03T02:50:32.808Z,69.10
2022-12-03T02:53:09.822Z,69.52
2022-12-03T02:55:45.154Z,69.24
2022-12-03T02:58:21.148Z,69.29
2022-12-03T03:00:56.722Z,69.34
2022-12-03T03:03:34.698Z,69.32
2022-12-03T03:06:12.050Z,69.34
2022-12-03T03:08:47.196Z,69.62
2022-12-03T03:11:22.374Z,69.58
2022-12-03T03:13:56.712Z,69.58
2022-12-03T03:16:40.706Z,69.45
2022-12-03T03:19:14.900Z,69.42
2022-12-03T03:21:58.285Z,69.29
2022-12-03T03:24:32.207Z,69.23
2022-12-03T03:27:07.257Z,69.03
2022-12-03T03:29:41.856Z,69.32
2022-12-03T03:32:16.870Z,69.16
2022-12-03T03:34:51.306Z,69.70
2022-12-03T03:37:26.471Z,69.71
2022-12-03T03:40:00.637Z,69.73
2022-12-03T03:42:34.356Z,69.98
2022-12-03T03:45:12.394Z,69.80
2022-12-03T03:47:45.896Z,69.74
2022-12-03T03:50:20.974Z,70.27
2022-12-03T03:52:55.280Z,70.14
2022-12-03T03:55:30.850Z,70.16
2022-12-03T03:58:05.630Z,69.93
2022-12-03T04:00:41.119Z,70.16
2022-12-03T04:03:15.906Z,70.20
2022-12-03T04:05:51.278Z,69.98
2022-12-03T04:08:25.545Z,69.74
2022-12-03T04:11:16.026Z,69.52
2022-12-03T04:13:51.237Z,69.35
2022-12-03T04:16:24.892Z,69.47
2022-12-03T04:18:58.897Z,69.32
2022-12-03T04:21:50.104Z,68.01
2022-12-03T04:24:24.372Z,67.91
2022-12-03T04:27:14.623Z,67.54
2022-12-03T04:29:58.184Z,67.35
2022-12-03T04:32:50.927Z,67.19
2022-12-03T04:35:42.104Z,66.49
2022-12-03T04:38:16.636Z,66.40
2022-12-03T04:41:04.155Z,66.93
2022-12-03T04:44:00.449Z,67.54
2022-12-03T04:46:34.807Z,66.99
2022-12-03T04:49:08.752Z,65.52
2022-12-03T04:51:42.849Z,64.91
2022-12-03T04:54:16.893Z,64.72
2022-12-03T04:57:00.593Z,64.59
2022-12-03T04:59:34.706Z,63.79
2022-12-03T05:02:09.745Z,63.70
2022-12-03T05:04:43.994Z,63.64
2022-12-03T05:07:18.585Z,62.97
2022-12-03T05:09:52.732Z,63.31
2022-12-03T05:12:26.829Z,62.97
2022-12-03T05:15:00.973Z,63.35
2022-12-03T05:17:34.903Z,63.54
2022-12-03T05:20:26.879Z,64.08
2022-12-03T05:23:00.817Z,64.09
2022-12-03T05:25:35.307Z,64.49
2022-12-03T05:28:09.871Z,64.64
2022-12-03T05:30:43.304Z,64.59
2022-12-03T05:33:14.844Z,64.40
2022-12-03T05:35:48.449Z,64.55
2022-12-03T05:38:23.314Z,64.59
2022-12-03T05:40:57.193Z,64.93
2022-12-03T05:43:32.835Z,64.98
2022-12-03T05:46:06.201Z,65.21
2022-12-03T05:48:39.589Z,65.16
2022-12-03T05:51:14.385Z,65.05
2022-12-03T05:53:48.636Z,64.67
2022-12-03T05:56:23.625Z,64.17
2022-12-03T05:58:57.822Z,64.35
2022-12-03T06:01:29.017Z,64.61
2022-12-03T06:04:02.492Z,64.39
2022-12-03T06:06:37.385Z,64.93
2022-12-03T06:09:10.745Z,64.98
2022-12-03T06:11:44.402Z,64.56
2022-12-03T06:14:18.706Z,64.85
2022-12-03T06:16:52.773Z,65.13
2022-12-03T06:19:27.182Z,65.46
2022-12-03T06:22:01.333Z,65.16
2022-12-03T06:24:34.909Z,65.54
2022-12-03T06:27:09.815Z,66.13
2022-12-03T06:29:44.563Z,66.34
2022-12-03T06:32:18.526Z,66.07
2022-12-03T06:34:52.717Z,66.46
2022-12-03T06:37:26.894Z,66.52
2022-12-03T06:40:01.915Z,66.67
2022-12-03T06:42:35.354Z,66.39
2022-12-03T06:45:17.896Z,66.81
2022-12-03T06:47:51.807Z,66.75
2022-12-03T06:50:34.835Z,66.83
2022-12-03T06:53:09.326Z,67.08
2022-12-03T06:55:44.003Z,67.10
2022-12-03T06:58:18.785Z,67.01
2022-12-03T07:00:53.229Z,67.37
2022-12-03T07:03:27.265Z,66.94
2022-12-03T07:06:00.978Z,67.05
2022-12-03T07:08:35.182Z,66.02
2022-12-03T07:11:29.993Z,65.85
2022-12-03T07:14:06.712Z,65.91
2022-12-03T07:16:41.138Z,65.64
2022-12-03T07:19:14.586Z,65.00
2022-12-03T07:21:48.973Z,64.90
2022-12-03T07:24:23.432Z,64.66
2022-12-03T07:26:57.388Z,63.94
2022-12-03T07:29:31.270Z,64.20
2022-12-03T07:32:05.740Z,63.80
2022-12-03T07:34:40.341Z,64.00
2022-12-03T07:37:24.291Z,63.77
2022-12-03T07:39:58.729Z,63.64
2022-12-03T07:42:32.467Z,64.09
2022-12-03T07:45:07.359Z,63.87
2022-12-03T07:47:41.053Z,63.65
2022-12-03T07:50:18.824Z,64.20
2022-12-03T07:52:53.079Z,62.92
2022-12-03T07:55:27.243Z,63.31
2022-12-03T08:00:34.484Z,63.14
2022-12-03T08:03:08.617Z,62.05
2022-12-03T08:05:43.346Z,62.06
2022-12-03T08:08:17.982Z,62.20
2022-12-03T08:10:51.953Z,62.49
2022-12-03T08:13:25.698Z,62.84
2022-12-03T08:16:01.764Z,62.62
2022-12-03T08:18:35.965Z,62.19
2022-12-03T08:21:15.763Z,62.54
2022-12-03T08:24:15.357Z,62.02
2022-12-03T08:26:51.460Z,61.91
2022-12-03T08:29:25.221Z,61.58
2022-12-03T08:32:01.135Z,61.52
2022-12-03T08:34:40.689Z,61.67
2022-12-03T08:37:21.028Z,61.17
2022-12-03T08:39:57.572Z,61.29
2022-12-03T08:42:45.016Z,61.32
2022-12-03T08:45:41.691Z,61.27
2022-12-03T08:48:28.067Z,60.88
2022-12-03T08:51:04.604Z,60.27
2022-12-03T08:53:41.222Z,60.31
2022-12-03T08:56:26.873Z,60.18
2022-12-03T08:59:01.348Z,60.00
2022-12-03T09:01:43.826Z,60.25
2022-12-03T09:04:39.885Z,60.67
2022-12-03T09:07:14.519Z,60.09
2022-12-03T09:09:48.465Z,60.28
2022-12-03T09:12:22.705Z,59.96
2022-12-03T09:14:57.719Z,60.11
2022-12-03T09:17:32.264Z,59.70
2022-12-03T09:20:07.030Z,59.54
2022-12-03T09:22:50.867Z,60.03
2022-12-03T09:25:25.057Z,59.52
2022-12-03T09:28:09.533Z,59.15
2022-12-03T09:30:43.853Z,59.00
2022-12-03T09:33:18.092Z,59.50
2022-12-03T09:35:52.125Z,59.35
2022-12-03T09:38:26.230Z,59.32
2022-12-03T09:41:01.860Z,59.41
2022-12-03T09:44:05.168Z,59.03
2022-12-03T09:46:32.635Z,58.85
2022-12-03T09:49:12.362Z,58.15
2022-12-03T09:51:50.225Z,58.62
2022-12-03T09:54:28.823Z,58.54
2022-12-03T09:57:10.481Z,58.76
2022-12-03T09:59:45.208Z,58.34
2022-12-03T10:02:26.533Z,58.18
2022-12-03T10:05:01.588Z,58.23
2022-12-03T10:07:35.685Z,58.36
2022-12-03T10:10:17.391Z,58.45
2022-12-03T10:12:52.670Z,58.21
2022-12-03T10:15:28.094Z,58.13
2022-12-03T10:18:03.538Z,57.77
2022-12-03T10:20:42.835Z,57.79
2022-12-03T10:23:24.522Z,57.68
2022-12-03T10:26:00.035Z,57.67
2022-12-03T10:28:37.752Z,57.31
2022-12-03T10:31:18.904Z,57.48
2022-12-03T10:34:00.292Z,57.16
2022-12-03T10:36:34.288Z,57.08
2022-12-03T10:39:13.495Z,57.13
2022-12-03T10:41:49.159Z,57.25
2022-12-03T10:44:25.991Z,56.66
2022-12-03T10:47:12.902Z,56.50
2022-12-03T10:49:44.704Z,55.78
2022-12-03T10:52:26.639Z,55.31
2022-12-03T10:55:00.926Z,55.29
2022-12-03T10:57:35.513Z,54.84
2022-12-03T11:00:23.797Z,55.08
2022-12-03T11:02:58.274Z,54.49
2022-12-03T11:05:32.870Z,54.45
2022-12-03T11:08:07.783Z,54.39
2022-12-03T11:10:42.014Z,54.56
2022-12-03T11:13:49.185Z,54.63
2022-12-03T11:17:00.970Z,54.57
2022-12-03T11:19:50.163Z,55.13
2022-12-03T11:22:44.087Z,55.18
2022-12-03T11:25:50.443Z,55.21
2022-12-03T11:28:54.097Z,55.34
2022-12-03T11:31:46.395Z,55.21
2022-12-03T11:34:49.044Z,54.98
2022-12-03T11:37:31.866Z,55.30
2022-12-03T11:40:34.746Z,55.14
2022-12-03T11:43:15.157Z,54.98
2022-12-03T11:45:49.178Z,54.96
2022-12-03T11:48:24.676Z,54.42
2022-12-03T11:50:58.984Z,54.49
2022-12-03T11:53:40.703Z,54.63
2022-12-03T11:56:27.804Z,54.52
2022-12-03T11:59:07.118Z,54.81
2022-12-03T12:01:43.104Z,54.75
2022-12-03T12:04:34.448Z,54.79
2022-12-03T12:07:09.905Z,54.59
2022-12-03T12:12:40.269Z,54.46
2022-12-03T12:15:43.887Z,54.72
2022-12-03T12:18:55.037Z,54.45
2022-12-03T12:21:48.163Z,54.53
2022-12-03T12:24:40.154Z,55.02
2022-12-03T12:27:17.029Z,54.98
2022-12-03T12:29:56.406Z,55.06
2022-12-03T12:32:33.027Z,54.91
2022-12-03T12:35:20.838Z,55.24
2022-12-03T12:37:59.959Z,55.61
2022-12-03T12:40:36.265Z,56.01
2022-12-03T12:43:34.248Z,56.22
2022-12-03T12:49:15.212Z,56.44
2022-12-03T12:51:52.077Z,56.71
2022-12-03T12:54:26.341Z,56.52
2022-12-03T12:56:59.988Z,56.51
2022-12-03T12:59:34.234Z,56.68
2022-12-03T13:02:22.488Z,56.26
2022-12-03T13:04:56.335Z,56.49
2022-12-03T13:07:30.574Z,56.65
2022-12-03T13:10:21.951Z,56.63
2022-12-03T13:12:56.282Z,57.03
2022-12-03T13:15:45.399Z,57.15
2022-12-03T13:18:33.564Z,57.34
2022-12-03T13:21:16.027Z,57.55
2022-12-03T13:23:50.123Z,57.68
2022-12-03T13:26:36.463Z,57.74
2022-12-03T13:29:17.740Z,58.27
2022-12-03T13:31:57.001Z,58.68
2022-12-03T13:34:33.975Z,58.21
2022-12-03T13:37:16.361Z,58.44
2022-12-03T13:39:51.235Z,58.18
2022-12-03T13:42:42.471Z,58.09
2022-12-03T13:45:36.055Z,58.09
2022-12-03T13:48:24.133Z,57.87
2022-12-03T13:50:58.566Z,57.69
2022-12-03T13:53:36.056Z,57.58
2022-12-03T13:56:29.790Z,57.66
2022-12-03T13:59:04.468Z,57.76
2022-12-03T14:01:39.776Z,57.55
2022-12-03T14:04:19.639Z,57.75
2022-12-03T14:06:54.368Z,57.70
2022-12-03T14:09:29.165Z,57.78
2022-12-03T14:12:20.131Z,57.76
2022-12-03T14:14:54.083Z,57.67
2022-12-03T14:17:29.584Z,57.48
2022-12-03T14:20:05.635Z,57.65
2022-12-03T14:22:42.419Z,57.70
2022-12-03T14:25:17.387Z,57.64
2022-12-03T14:27:51.682Z,57.74
2022-12-03T14:30:26.827Z,57.70
2022-12-03T14:33:00.834Z,57.53
2022-12-03T14:35:35.116Z,57.66
2022-12-03T14:38:09.447Z,57.75
2022-12-03T14:40:43.535Z,57.83
2022-12-03T14:43:19.509Z,57.73
2022-12-03T14:45:54.268Z,57.88
2022-12-03T14:48:28.370Z,57.95
2022-12-03T14:51:05.116Z,58.12
2022-12-03T14:53:38.928Z,58.24
2022-12-03T14:56:13.835Z,58.51
2022-12-03T14:58:48.502Z,58.44
2022-12-03T15:01:22.755Z,58.61
2022-12-03T15:03:56.924Z,58.82
2022-12-03T15:06:28.202Z,59.03
2022-12-03T15:09:02.754Z,59.60
2022-12-03T15:11:46.520Z,60.06
2022-12-03T15:14:21.119Z,60.19
2022-12-03T15:16:55.146Z,60.33
2022-12-03T15:19:28.896Z,60.64
2022-12-03T15:22:03.270Z,61.11
2022-12-03T15:24:37.371Z,61.72
2022-12-03T15:27:11.833Z,62.12
2022-12-03T15:29:46.141Z,62.36
2022-12-03T15:32:20.642Z,62.34
2022-12-03T15:34:54.563Z,62.24
2022-12-03T15:37:29.517Z,62.15
2022-12-03T15:40:04.158Z,62.15
2022-12-03T15:42:38.809Z,62.03
2022-12-03T15:45:16.028Z,62.02
2022-12-03T15:47:50.075Z,61.93
2022-12-03T15:50:24.203Z,62.01
2022-12-03T15:53:01.212Z,62.12
2022-12-03T15:55:34.882Z,62.08
2022-12-03T15:58:09.416Z,62.35
2022-12-03T16:00:43.595Z,62.25
2022-12-03T16:03:17.596Z,62.31
2022-12-03T16:05:52.431Z,62.34
2022-12-03T16:08:26.534Z,62.13
2022-12-03T16:11:00.697Z,62.24
2022-12-03T16:13:35.182Z,62.31
2022-12-03T16:16:11.006Z,62.15
2022-12-03T16:18:46.094Z,62.26
2022-12-03T16:21:28.339Z,62.27
2022-12-03T16:24:03.421Z,62.32
2022-12-03T16:26:37.000Z,62.54
2022-12-03T16:29:10.669Z,62.69
2022-12-03T16:31:44.675Z,62.61
2022-12-03T16:34:19.864Z,62.72
2022-12-03T16:36:54.413Z,62.69
2022-12-03T16:39:28.737Z,62.77
2022-12-03T16:42:04.019Z,62.70
2022-12-03T16:44:55.714Z,62.76
2022-12-03T16:47:34.133Z,62.77
2022-12-03T16:50:20.639Z,62.74
2022-12-03T16:52:58.091Z,62.98
2022-12-03T16:55:30.276Z,62.88
2022-12-03T16:58:04.483Z,63.02
2022-12-03T17:00:39.323Z,63.11
2022-12-03T17:03:13.583Z,62.98
2022-12-03T17:05:47.662Z,63.43
2022-12-03T17:08:21.553Z,63.68
2022-12-03T17:10:55.712Z,63.82
2022-12-03T17:13:30.072Z,64.09
2022-12-03T17:16:03.957Z,64.18
2022-12-03T17:18:37.703Z,64.26
2022-12-03T17:21:12.847Z,64.35
2022-12-03T17:23:48.917Z,64.51
2022-12-03T17:26:22.556Z,64.73
2022-12-03T17:28:57.476Z,65.06
2022-12-03T17:31:33.720Z,65.12
2022-12-03T17:34:11.742Z,65.40
2022-12-03T17:36:46.095Z,65.62
2022-12-03T17:39:20.193Z,65.92
2022-12-03T17:41:53.876Z,65.87
2022-12-03T17:44:29.325Z,66.30
2022-12-03T17:47:03.495Z,66.30
2022-12-03T17:49:38.133Z,66.42
2022-12-03T17:52:11.580Z,66.56
2022-12-03T17:55:08.958Z,66.51
2022-12-03T17:57:39.822Z,66.68
2022-12-03T18:00:23.367Z,66.42
2022-12-03T18:02:57.629Z,66.58
2022-12-03T18:05:31.792Z,66.60
2022-12-03T18:08:05.937Z,66.57
2022-12-03T18:10:40.763Z,66.53
2022-12-03T18:13:17.588Z,66.63
2022-12-03T18:15:51.966Z,66.92
2022-12-03T18:18:25.315Z,66.89
2022-12-03T18:21:05.334Z,66.94
2022-12-03T18:23:40.244Z,67.27
2022-12-03T18:26:14.211Z,67.17
2022-12-03T18:28:48.551Z,67.45
2022-12-03T18:31:23.760Z,67.53
2022-12-03T18:34:02.448Z,67.51
2022-12-03T18:36:40.217Z,67.49
2022-12-03T18:39:22.884Z,67.69
2022-12-03T18:41:57.470Z,67.82
2022-12-03T18:44:31.739Z,67.91
2022-12-03T18:47:08.852Z,67.90
2022-12-03T18:49:43.082Z,68.22
2022-12-03T18:52:21.033Z,68.27
2022-12-03T18:54:55.539Z,68.53
2022-12-03T18:57:29.726Z,68.76
2022-12-03T19:00:11.824Z,68.77
2022-12-03T19:03:03.959Z,69.13
2022-12-03T19:05:39.296Z,69.25
2022-12-03T19:08:15.305Z,69.47
2022-12-03T19:10:57.300Z,69.60
2022-12-03T19:13:35.249Z,69.57
2022-12-03T19:16:12.466Z,69.61
2022-12-03T19:18:46.525Z,69.72
2022-12-03T19:21:21.358Z,69.80
2022-12-03T19:24:22.714Z,69.67
2022-12-03T19:26:48.709Z,69.59
2022-12-03T19:29:23.103Z,69.24
2022-12-03T19:31:57.608Z,69.31
2022-12-03T19:34:32.795Z,69.28
2022-12-03T19:37:09.555Z,69.16
2022-12-03T19:39:43.179Z,69.16
2022-12-03T19:42:17.522Z,69.19
2022-12-03T19:44:52.553Z,69.15
2022-12-03T19:47:26.703Z,69.04
2022-12-03T19:50:00.714Z,69.10
2022-12-03T19:52:37.311Z,68.94
2022-12-03T19:55:13.796Z,69.08
2022-12-03T19:57:48.899Z,69.04
2022-12-03T20:00:25.220Z,69.01
2022-12-03T20:02:59.741Z,68.83
2022-12-03T20:05:33.520Z,68.98
2022-12-03T20:08:08.783Z,69.00
2022-12-03T20:10:42.419Z,69.08
2022-12-03T20:13:16.113Z,69.13
2022-12-03T20:15:49.765Z,69.08
2022-12-03T20:18:23.760Z,69.07
2022-12-03T20:21:01.384Z,68.98
2022-12-03T20:23:35.468Z,69.00
2022-12-03T20:26:12.732Z,69.08
2022-12-03T20:28:47.185Z,69.23
2022-12-03T20:31:23.185Z,69.54
2022-12-03T20:33:56.957Z,69.36
2022-12-03T20:36:27.668Z,69.55
2022-12-03T20:39:04.938Z,69.63
2022-12-03T20:41:39.635Z,69.91
2022-12-03T20:44:14.162Z,70.16
2022-12-03T20:46:47.664Z,70.65
2022-12-03T20:49:21.449Z,70.86
2022-12-03T20:51:59.811Z,71.19
2022-12-03T20:54:36.687Z,71.60
2022-12-03T20:57:10.774Z,71.85
2022-12-03T20:59:44.955Z,72.11
2022-12-03T21:02:18.536Z,72.13
2022-12-03T21:04:51.511Z,72.06
2022-12-03T21:07:26.561Z,72.10
2022-12-03T21:10:00.379Z,71.90
2022-12-03T21:12:34.843Z,71.57
2022-12-03T21:15:11.617Z,71.60
2022-12-03T21:17:46.130Z,71.30
2022-12-03T21:20:21.400Z,71.38
2022-12-03T21:22:56.228Z,71.59
2022-12-03T21:25:30.428Z,71.20
2022-12-03T21:28:07.074Z,70.98
2022-12-03T21:30:41.736Z,70.92
2022-12-03T21:33:15.621Z,70.91
2022-12-03T21:35:49.693Z,70.94
2022-12-03T21:38:27.764Z,70.96
2022-12-03T21:41:05.414Z,70.77
2022-12-03T21:43:39.539Z,70.85
2022-12-03T21:47:10.098Z,70.82
2022-12-03T21:49:11.369Z,70.96
2022-12-03T21:51:44.674Z,70.83
2022-12-03T21:54:18.677Z,71.00
2022-12-03T21:56:53.583Z,71.09
2022-12-03T21:59:28.350Z,71.13
2022-12-03T22:02:02.801Z,71.11
2022-12-03T22:04:36.763Z,71.30
2022-12-03T22:07:15.573Z,71.46
2022-12-03T22:09:50.085Z,71.83
2022-12-03T22:12:23.904Z,72.10
2022-12-03T22:14:58.523Z,72.11
2022-12-03T22:17:32.719Z,72.22
2022-12-03T22:20:07.265Z,72.55
2022-12-03T22:22:40.928Z,72.64
2022-12-03T22:25:15.386Z,72.75
2022-12-03T22:27:49.502Z,72.76
2022-12-03T22:30:24.372Z,72.75
2022-12-03T22:32:59.284Z,72.84
2022-12-03T22:35:33.129Z,72.75
2022-12-03T22:38:06.996Z,72.76
2022-12-03T22:40:42.020Z,72.63
2022-12-03T22:43:16.347Z,72.70
2022-12-03T22:45:49.612Z,72.70
2022-12-03T22:48:21.505Z,72.59
2022-12-03T22:50:56.142Z,72.56
2022-12-03T22:53:30.439Z,72.55
2022-12-03T22:56:05.224Z,72.46
2022-12-03T22:58:40.665Z,72.24
2022-12-03T23:01:21.334Z,72.30
2022-12-03T23:03:55.421Z,72.36
2022-12-03T23:06:29.860Z,72.12
2022-12-03T23:09:03.208Z,72.09
2022-12-03T23:11:37.103Z,72.15
2022-12-03T23:14:11.254Z,72.06
2022-12-03T23:16:45.018Z,72.02
2022-12-03T23:19:21.232Z,72.02
2022-12-03T23:21:55.163Z,72.10
2022-12-03T23:24:29.236Z,72.19
2022-12-03T23:27:04.215Z,72.27
2022-12-03T23:29:39.187Z,72.17
2022-12-03T23:32:13.356Z,72.16
2022-12-03T23:34:45.153Z,72.14
2022-12-03T23:37:19.615Z,72.27
2022-12-03T23:39:54.211Z,72.28
2022-12-03T23:42:28.593Z,72.09
2022-12-03T23:45:02.872Z,72.17
2022-12-03T23:47:36.977Z,72.11
2022-12-03T23:50:15.806Z,72.07
2022-12-03T23:52:49.793Z,72.13
2022-12-03T23:55:24.060Z,72.09
2022-12-03T23:57:57.714Z,72.01
